createdAt,value
2023-04-19T00:00:46.387Z,8.60
2023-04-19T00:03:14.615Z,8.60
2023-04-19T00:05:42.570Z,8.50
2023-04-19T00:08:10.294Z,8.40
2023-04-19T00:10:39.891Z,8.40
2023-04-19T00:13:07.416Z,8.30
2023-04-19T00:15:35.214Z,8.30
2023-04-19T00:18:02.860Z,8.20
2023-04-19T00:20:30.518Z,8.20
2023-04-19T00:22:59.176Z,8.10
2023-04-19T00:25:26.766Z,8.10
2023-04-19T00:27:56.024Z,8.00
2023-04-19T00:30:23.548Z,8.00
2023-04-19T00:32:52.135Z,8.00
2023-04-19T00:35:20.092Z,8.00
2023-04-19T00:37:47.688Z,8.00
2023-04-19T00:40:15.288Z,8.00
2023-04-19T00:42:42.936Z,8.00
2023-04-19T00:45:12.777Z,8.00
2023-04-19T00:47:40.440Z,8.00
2023-04-19T00:50:08.634Z,8.00
2023-04-19T00:52:36.653Z,8.00
2023-04-19T00:55:05.534Z,8.00
2023-04-19T00:57:33.148Z,8.00
2023-04-19T01:00:01.284Z,8.00
2023-04-19T01:02:30.191Z,8.00
2023-04-19T01:04:58.158Z,8.00
2023-04-19T01:07:25.756Z,8.10
2023-04-19T01:09:53.257Z,8.10
2023-04-19T01:12:23.197Z,8.10
2023-04-19T01:14:50.927Z,8.20
2023-04-19T01:17:21.706Z,8.20
2023-04-19T01:19:49.374Z,8.30
2023-04-19T01:22:22.868Z,8.20
2023-04-19T01:24:51.244Z,8.30
2023-04-19T01:27:19.962Z,8.30
2023-04-19T01:29:47.478Z,8.40
2023-04-19T01:32:15.254Z,8.30
2023-04-19T01:34:42.999Z,8.40
2023-04-19T01:37:10.904Z,8.40
2023-04-19T01:39:38.512Z,8.40
2023-04-19T01:42:08.153Z,8.40
2023-04-19T01:44:37.484Z,8.40
2023-04-19T01:47:05.784Z,8.40
2023-04-19T01:49:33.717Z,8.50
2023-04-19T01:52:01.270Z,8.50
2023-04-19T01:54:28.803Z,8.50
2023-04-19T01:56:56.312Z,8.50
2023-04-19T01:59:23.871Z,8.50
2023-04-19T02:01:51.920Z,8.40
2023-04-19T02:04:22.473Z,8.50
2023-04-19T02:06:50.099Z,8.50
2023-04-19T02:09:17.620Z,8.50
2023-04-19T02:11:46.942Z,8.50
2023-04-19T02:14:14.931Z,8.50
2023-04-19T02:16:43.831Z,8.50
2023-04-19T02:19:11.627Z,8.50
2023-04-19T02:21:39.651Z,8.40
2023-04-19T02:24:07.667Z,8.40
2023-04-19T02:26:35.246Z,8.40
2023-04-19T02:29:04.502Z,8.40
2023-04-19T02:31:33.987Z,8.40
2023-04-19T02:34:01.534Z,8.40
2023-04-19T02:36:29.021Z,8.40
2023-04-19T02:38:56.829Z,8.30
2023-04-19T02:41:24.317Z,8.30
2023-04-19T02:43:51.869Z,8.30
2023-04-19T02:46:19.453Z,8.30
2023-04-19T02:48:47.043Z,8.30
2023-04-19T02:51:17.904Z,8.20
2023-04-19T02:53:45.674Z,8.30
2023-04-19T02:56:13.144Z,8.30
2023-04-19T02:58:40.836Z,8.30
2023-04-19T03:01:09.277Z,8.30
2023-04-19T03:03:36.964Z,8.30
2023-04-19T03:06:04.798Z,8.30
2023-04-19T03:08:33.560Z,8.30
2023-04-19T03:11:01.201Z,8.30
2023-04-19T03:13:31.351Z,8.30
2023-04-19T03:15:58.942Z,8.30
2023-04-19T03:18:28.464Z,8.40
2023-04-19T03:20:57.576Z,8.40
2023-04-19T03:23:28.028Z,8.40
2023-04-19T03:25:57.224Z,8.40
2023-04-19T03:28:33.024Z,8.40
2023-04-19T03:31:19.153Z,8.40
2023-04-19T03:33:50.792Z,8.50
2023-04-19T03:36:20.247Z,8.50
2023-04-19T03:38:48.383Z,8.50
2023-04-19T03:41:23.444Z,8.50
2023-04-19T03:44:09.362Z,8.50
2023-04-19T03:46:42.701Z,8.50
2023-04-19T03:49:10.960Z,8.60
2023-04-19T03:51:39.609Z,8.60
2023-04-19T03:54:08.178Z,8.60
2023-04-19T03:56:35.786Z,8.60
2023-04-19T03:59:03.352Z,8.60
2023-04-19T04:01:33.658Z,8.60
2023-04-19T04:04:04.783Z,8.60
2023-04-19T04:06:32.867Z,8.70
2023-04-19T04:09:00.932Z,8.70
2023-04-19T04:11:28.495Z,8.70
2023-04-19T04:13:56.894Z,8.70
2023-04-19T04:16:28.640Z,8.70
2023-04-19T04:18:56.876Z,8.70
2023-04-19T04:21:27.439Z,8.70
2023-04-19T04:23:57.992Z,8.70
2023-04-19T04:26:35.288Z,8.70
2023-04-19T04:29:23.137Z,8.70
2023-04-19T04:31:53.478Z,8.70
2023-04-19T04:34:25.916Z,8.70
2023-04-19T04:37:01.606Z,8.70
2023-04-19T04:39:30.186Z,8.70
2023-04-19T04:41:57.824Z,8.70
2023-04-19T04:44:25.615Z,8.70
2023-04-19T04:46:53.494Z,8.70
2023-04-19T04:49:25.992Z,8.70
2023-04-19T04:51:53.611Z,8.70
2023-04-19T04:54:22.793Z,8.70
2023-04-19T04:56:50.587Z,8.70
2023-04-19T04:59:18.400Z,8.60
2023-04-19T05:01:49.168Z,8.70
2023-04-19T05:04:19.279Z,8.70
2023-04-19T05:06:46.868Z,8.60
2023-04-19T05:09:20.106Z,8.60
2023-04-19T05:11:47.965Z,8.70
2023-04-19T05:14:15.851Z,8.70
2023-04-19T05:16:43.871Z,8.60
2023-04-19T05:19:11.673Z,8.60
2023-04-19T05:21:45.429Z,8.60
2023-04-19T05:24:14.717Z,8.70
2023-04-19T05:26:43.036Z,8.70
2023-04-19T05:29:11.935Z,8.70
2023-04-19T05:31:48.983Z,8.70
2023-04-19T05:34:24.050Z,8.70
2023-04-19T05:36:52.102Z,8.70
2023-04-19T05:39:19.683Z,8.80
2023-04-19T05:41:47.221Z,8.80
2023-04-19T05:44:15.343Z,8.80
2023-04-19T05:46:43.436Z,8.80
2023-04-19T05:49:14.243Z,8.80
2023-04-19T05:52:16.950Z,8.80
2023-04-19T05:54:51.199Z,8.90
2023-04-19T05:57:18.787Z,8.90
2023-04-19T05:59:46.578Z,8.90
2023-04-19T06:02:17.628Z,9.00
2023-04-19T06:04:45.901Z,9.00
2023-04-19T06:07:30.094Z,9.00
2023-04-19T06:09:59.309Z,9.00
2023-04-19T06:12:27.410Z,9.00
2023-04-19T06:14:55.097Z,9.00
2023-04-19T06:17:25.356Z,9.00
2023-04-19T06:19:56.557Z,9.00
2023-04-19T06:22:24.151Z,9.00
2023-04-19T06:24:51.710Z,8.90
2023-04-19T06:27:20.520Z,8.90
2023-04-19T06:29:49.322Z,8.90
2023-04-19T06:32:18.612Z,8.90
2023-04-19T06:34:46.186Z,8.80
2023-04-19T06:37:13.932Z,8.80
2023-04-19T06:39:41.512Z,8.80
2023-04-19T06:42:09.165Z,8.80
2023-04-19T06:44:37.275Z,8.90
2023-04-19T06:47:04.900Z,8.90
2023-04-19T06:49:32.411Z,9.00
2023-04-19T06:52:00.457Z,9.10
2023-04-19T06:54:28.038Z,9.20
2023-04-19T06:56:56.836Z,9.20
2023-04-19T06:59:28.219Z,9.40
2023-04-19T07:01:57.579Z,9.40
2023-04-19T07:04:27.815Z,9.50
2023-04-19T07:06:55.481Z,9.60
2023-04-19T07:09:23.077Z,9.60
2023-04-19T07:11:51.421Z,9.60
2023-04-19T07:14:21.690Z,9.70
2023-04-19T07:16:50.738Z,9.70
2023-04-19T07:19:20.593Z,9.70
2023-04-19T07:21:48.234Z,9.70
2023-04-19T07:24:16.560Z,9.70
2023-04-19T07:26:44.514Z,9.70
2023-04-19T07:29:13.103Z,9.80
2023-04-19T07:31:42.079Z,9.80
2023-04-19T07:34:09.975Z,9.80
2023-04-19T07:36:37.946Z,9.80
2023-04-19T07:39:05.501Z,9.90
2023-04-19T07:41:33.253Z,9.90
2023-04-19T07:44:00.804Z,9.90
2023-04-19T07:46:28.561Z,9.90
2023-04-19T07:48:56.224Z,10.10
2023-04-19T07:51:24.717Z,10.10
2023-04-19T07:53:52.675Z,10.20
2023-04-19T07:56:20.282Z,10.30
2023-04-19T07:58:56.408Z,10.50
2023-04-19T08:01:31.385Z,10.50
2023-04-19T08:04:00.931Z,10.60
2023-04-19T08:06:30.484Z,10.60
2023-04-19T08:08:58.050Z,10.80
2023-04-19T08:11:25.775Z,10.80
2023-04-19T08:14:04.593Z,10.90
2023-04-19T08:19:09.798Z,11.40
2023-04-19T08:21:41.306Z,11.50
2023-04-19T08:24:09.355Z,11.60
2023-04-19T08:26:39.064Z,11.70
2023-04-19T08:29:06.649Z,11.90
2023-04-19T08:31:34.446Z,11.80
2023-04-19T08:34:02.794Z,11.80
2023-04-19T08:36:39.209Z,11.80
2023-04-19T08:39:18.025Z,11.80
2023-04-19T08:42:02.739Z,11.80
2023-04-19T08:44:45.030Z,11.80
2023-04-19T08:47:32.185Z,11.80
2023-04-19T08:52:47.818Z,11.90
2023-04-19T08:55:20.533Z,12.00
2023-04-19T08:57:48.602Z,12.00
2023-04-19T09:00:17.115Z,12.30
2023-04-19T09:02:53.319Z,12.50
2023-04-19T09:05:21.535Z,12.70
2023-04-19T09:07:49.592Z,13.00
2023-04-19T09:10:19.520Z,13.30
2023-04-19T09:13:06.260Z,13.50
2023-04-19T09:15:39.389Z,13.80
2023-04-19T09:18:12.060Z,14.20
2023-04-19T09:20:41.452Z,14.40
2023-04-19T09:23:12.666Z,14.50
2023-04-19T09:25:52.964Z,14.70
2023-04-19T09:28:30.128Z,14.90
2023-04-19T09:31:10.646Z,15.10
2023-04-19T09:33:46.420Z,15.10
2023-04-19T09:36:27.979Z,15.30
2023-04-19T09:38:56.045Z,16.00
2023-04-19T09:41:24.036Z,16.00
2023-04-19T09:44:08.887Z,16.50
2023-04-19T09:46:40.885Z,16.80
2023-04-19T09:49:25.019Z,16.90
2023-04-19T09:51:56.659Z,16.90
2023-04-19T09:54:28.761Z,17.00
2023-04-19T09:56:57.949Z,17.30
2023-04-19T09:59:27.218Z,17.50
2023-04-19T10:01:58.866Z,17.50
2023-04-19T10:04:43.537Z,17.50
2023-04-19T10:09:53.629Z,16.90
2023-04-19T10:14:57.475Z,16.70
2023-04-19T10:17:25.462Z,16.70
2023-04-19T10:19:59.641Z,16.40
2023-04-19T10:22:28.290Z,16.30
2023-04-19T10:25:13.259Z,16.10
2023-04-19T10:27:48.712Z,16.00
2023-04-19T10:30:19.995Z,15.90
2023-04-19T10:32:56.494Z,16.00
2023-04-19T10:35:25.223Z,16.50
2023-04-19T10:38:16.466Z,17.30
2023-04-19T10:40:55.021Z,18.40
2023-04-19T10:43:34.294Z,18.90
2023-04-19T10:46:06.725Z,19.30
2023-04-19T10:48:35.791Z,19.20
2023-04-19T10:51:07.291Z,19.30
2023-04-19T10:53:44.862Z,19.40
2023-04-19T10:56:12.859Z,19.40
2023-04-19T10:59:02.326Z,20.10
2023-04-19T11:01:40.038Z,20.00
2023-04-19T11:04:16.317Z,20.10
2023-04-19T11:06:53.194Z,20.00
2023-04-19T11:09:36.824Z,19.20
2023-04-19T11:12:08.708Z,19.00
2023-04-19T11:14:39.675Z,18.40
2023-04-19T11:17:28.040Z,17.80
2023-04-19T11:20:08.330Z,17.20
2023-04-19T11:22:37.944Z,17.10
2023-04-19T11:25:24.385Z,16.80
2023-04-19T11:27:53.685Z,16.60
2023-04-19T11:30:28.235Z,16.30
2023-04-19T11:32:57.253Z,16.20
2023-04-19T11:35:27.053Z,15.90
2023-04-19T11:37:56.751Z,15.80
2023-04-19T11:40:26.269Z,15.70
2023-04-19T11:43:00.657Z,15.70
2023-04-19T11:45:37.652Z,15.80
2023-04-19T11:48:07.820Z,15.80
2023-04-19T11:50:40.456Z,15.80
2023-04-19T11:53:11.136Z,15.80
2023-04-19T11:55:38.773Z,15.90
2023-04-19T11:58:09.822Z,15.90
2023-04-19T12:00:37.584Z,15.90
2023-04-19T12:03:05.880Z,15.90
2023-04-19T12:05:33.824Z,16.10
2023-04-19T12:08:09.391Z,16.30
2023-04-19T12:10:37.078Z,16.80
2023-04-19T12:13:18.220Z,17.10
2023-04-19T12:15:46.772Z,17.40
2023-04-19T12:18:14.642Z,17.50
2023-04-19T12:20:47.169Z,17.60
2023-04-19T12:23:16.013Z,17.70
2023-04-19T12:25:46.435Z,17.80
2023-04-19T12:28:15.686Z,17.80
2023-04-19T12:30:44.134Z,17.80
2023-04-19T12:33:12.073Z,17.80
2023-04-19T12:35:39.959Z,17.70
2023-04-19T12:38:08.755Z,17.80
2023-04-19T12:40:36.309Z,17.80
2023-04-19T12:43:06.023Z,17.80
2023-04-19T12:45:34.989Z,17.80
2023-04-19T12:48:02.848Z,17.90
2023-04-19T12:50:30.604Z,17.80
2023-04-19T12:52:58.112Z,17.70
2023-04-19T12:55:26.239Z,17.60
2023-04-19T12:57:53.890Z,17.40
2023-04-19T13:00:21.534Z,17.30
2023-04-19T13:02:49.201Z,17.30
2023-04-19T13:05:16.840Z,17.20
2023-04-19T13:07:44.362Z,17.10
2023-04-19T13:10:12.502Z,17.10
2023-04-19T13:12:40.203Z,17.10
2023-04-19T13:15:08.521Z,17.10
2023-04-19T13:17:37.069Z,17.10
2023-04-19T13:20:06.396Z,17.10
2023-04-19T13:22:33.912Z,17.10
2023-04-19T13:25:01.606Z,17.40
2023-04-19T13:27:30.640Z,17.60
2023-04-19T13:29:58.141Z,17.90
2023-04-19T13:32:25.777Z,18.20
2023-04-19T13:34:53.584Z,18.80
2023-04-19T13:37:21.156Z,19.80
2023-04-19T13:39:48.708Z,20.90
2023-04-19T13:42:16.606Z,21.20
2023-04-19T13:44:44.173Z,21.80
2023-04-19T13:47:11.872Z,22.00
2023-04-19T13:49:39.585Z,21.70
2023-04-19T13:52:07.358Z,21.60
2023-04-19T13:54:34.862Z,21.80
2023-04-19T13:57:03.056Z,22.30
2023-04-19T13:59:30.535Z,23.30
2023-04-19T14:01:58.212Z,23.50
2023-04-19T14:04:26.799Z,24.10
2023-04-19T14:06:54.515Z,24.40
2023-04-19T14:09:22.067Z,24.60
2023-04-19T14:11:49.656Z,24.60
2023-04-19T14:14:18.032Z,24.00
2023-04-19T14:16:45.859Z,23.40
2023-04-19T14:19:13.564Z,23.30
2023-04-19T14:21:41.209Z,23.40
2023-04-19T14:24:08.843Z,23.70
2023-04-19T14:26:36.416Z,23.90
2023-04-19T14:29:04.074Z,23.70
2023-04-19T14:31:31.681Z,23.70
2023-04-19T14:33:59.884Z,24.00
2023-04-19T14:36:27.720Z,24.00
2023-04-19T14:38:55.265Z,23.70
2023-04-19T14:41:23.100Z,23.70
2023-04-19T14:43:50.627Z,23.30
2023-04-19T14:46:18.187Z,23.00
2023-04-19T14:48:45.754Z,22.50
2023-04-19T14:51:13.384Z,22.50
2023-04-19T14:53:40.912Z,22.30
2023-04-19T14:56:08.679Z,22.40
2023-04-19T14:58:36.351Z,22.50
2023-04-19T15:01:14.174Z,22.50
2023-04-19T15:03:42.262Z,22.60
2023-04-19T15:06:10.035Z,22.80
2023-04-19T15:08:37.558Z,23.10
2023-04-19T15:11:05.291Z,23.30
2023-04-19T15:13:33.907Z,23.50
2023-04-19T15:16:03.946Z,23.60
2023-04-19T15:18:31.581Z,23.80
2023-04-19T15:20:59.228Z,23.70
2023-04-19T15:23:26.792Z,23.70
2023-04-19T15:25:55.683Z,23.60
2023-04-19T15:28:24.860Z,23.50
2023-04-19T15:31:01.273Z,23.20
2023-04-19T15:33:29.163Z,23.10
2023-04-19T15:35:57.929Z,23.00
2023-04-19T15:38:30.627Z,23.00
2023-04-19T15:40:58.973Z,22.80
2023-04-19T15:43:26.520Z,22.60
2023-04-19T15:45:54.092Z,22.60
2023-04-19T15:48:22.048Z,22.70
2023-04-19T15:50:49.741Z,22.80
2023-04-19T15:53:17.293Z,22.80
2023-04-19T15:55:46.972Z,22.70
2023-04-19T15:58:15.296Z,22.60
2023-04-19T16:00:43.179Z,22.60
2023-04-19T16:03:12.604Z,22.30
2023-04-19T16:05:40.490Z,22.10
2023-04-19T16:08:09.500Z,22.00
2023-04-19T16:10:37.490Z,21.90
2023-04-19T16:13:05.892Z,21.80
2023-04-19T16:15:33.596Z,21.40
2023-04-19T16:18:01.229Z,20.90
2023-04-19T16:20:28.914Z,20.40
2023-04-19T16:22:57.704Z,20.10
2023-04-19T16:25:25.330Z,19.50
2023-04-19T16:27:52.867Z,19.10
2023-04-19T16:30:20.952Z,18.70
2023-04-19T16:32:48.547Z,18.60
2023-04-19T16:35:18.267Z,18.40
2023-04-19T16:37:45.905Z,18.20
2023-04-19T16:40:13.848Z,17.60
2023-04-19T16:42:41.528Z,17.50
2023-04-19T16:45:09.531Z,17.20
2023-04-19T16:47:37.291Z,17.00
2023-04-19T16:50:06.196Z,16.70
2023-04-19T16:52:35.623Z,16.70
2023-04-19T16:55:06.165Z,16.50
2023-04-19T16:57:33.731Z,16.30
2023-04-19T17:00:01.333Z,15.80
2023-04-19T17:02:29.441Z,15.60
2023-04-19T17:04:57.406Z,15.60
2023-04-19T17:07:25.047Z,15.60
2023-04-19T17:09:52.606Z,15.40
2023-04-19T17:12:20.384Z,15.40
2023-04-19T17:14:47.896Z,15.30
2023-04-19T17:17:15.583Z,15.20
2023-04-19T17:19:43.080Z,14.90
2023-04-19T17:22:10.573Z,14.80
2023-04-19T17:24:39.236Z,14.70
2023-04-19T17:27:06.813Z,14.50
2023-04-19T17:29:34.382Z,14.30
2023-04-19T17:32:02.003Z,14.10
2023-04-19T17:34:29.598Z,14.10
2023-04-19T17:36:57.213Z,14.10
2023-04-19T17:39:27.715Z,13.90
2023-04-19T17:41:56.258Z,13.90
2023-04-19T17:44:24.170Z,13.80
2023-04-19T17:46:51.697Z,13.70
2023-04-19T17:49:22.048Z,13.50
2023-04-19T17:51:49.602Z,13.50
2023-04-19T17:54:17.357Z,13.40
2023-04-19T17:56:44.872Z,13.50
2023-04-19T17:59:12.434Z,13.30
2023-04-19T18:01:40.885Z,13.30
2023-04-19T18:04:08.958Z,13.20
2023-04-19T18:06:36.606Z,13.10
2023-04-19T18:09:04.179Z,13.00
2023-04-19T18:11:31.675Z,13.00
2023-04-19T18:13:59.196Z,12.90
2023-04-19T18:16:26.685Z,12.80
2023-04-19T18:18:54.258Z,12.60
2023-04-19T18:21:21.931Z,12.60
2023-04-19T18:23:49.642Z,12.60
2023-04-19T18:26:17.337Z,12.50
2023-04-19T18:28:45.275Z,12.40
2023-04-19T18:31:13.046Z,12.30
2023-04-19T18:33:40.619Z,12.20
2023-04-19T18:36:08.487Z,12.10
2023-04-19T18:38:36.045Z,12.00
2023-04-19T18:41:03.598Z,11.80
2023-04-19T18:43:31.662Z,11.80
2023-04-19T18:46:00.265Z,11.70
2023-04-19T18:48:29.494Z,11.60
2023-04-19T18:50:57.522Z,11.50
2023-04-19T18:53:29.510Z,11.40
2023-04-19T18:55:57.769Z,11.40
2023-04-19T18:58:29.390Z,11.30
2023-04-19T19:00:58.207Z,11.30
2023-04-19T19:05:58.595Z,11.10
2023-04-19T19:08:26.358Z,11.00
2023-04-19T19:13:24.398Z,10.90
2023-04-19T19:15:51.961Z,10.70
2023-04-19T19:18:19.579Z,10.70
2023-04-19T19:20:47.201Z,10.60
2023-04-19T19:23:14.976Z,10.60
2023-04-19T19:25:42.495Z,10.50
2023-04-19T19:28:10.616Z,10.40
2023-04-19T19:30:40.219Z,10.40
2023-04-19T19:33:07.941Z,10.30
2023-04-19T19:35:35.505Z,10.30
2023-04-19T19:38:03.230Z,10.20
2023-04-19T19:40:32.555Z,10.10
2023-04-19T19:43:01.383Z,10.10
2023-04-19T19:45:32.409Z,10.00
2023-04-19T19:48:00.687Z,10.00
2023-04-19T19:53:00.955Z,9.90
2023-04-19T19:55:28.985Z,9.80
2023-04-19T20:02:58.946Z,9.70
2023-04-19T20:05:28.362Z,9.60
2023-04-19T20:08:25.596Z,9.60
2023-04-19T20:10:53.272Z,9.60
2023-04-19T20:13:20.917Z,9.50
2023-04-19T20:15:48.549Z,9.50
2023-04-19T20:18:17.061Z,9.50
2023-04-19T20:20:44.806Z,9.40
2023-04-19T20:23:12.595Z,9.40
2023-04-19T20:25:40.170Z,9.30
2023-04-19T20:28:09.376Z,9.30
2023-04-19T20:30:37.489Z,9.20
2023-04-19T20:33:05.398Z,9.20
2023-04-19T20:35:36.492Z,9.10
2023-04-19T20:38:04.079Z,9.10
2023-04-19T20:40:33.066Z,9.00
2023-04-19T20:45:28.689Z,9.00
2023-04-19T20:47:56.384Z,9.00
2023-04-19T20:50:23.977Z,8.90
2023-04-19T20:52:51.755Z,8.90
2023-04-19T20:55:19.331Z,8.90
2023-04-19T20:57:46.867Z,8.80
2023-04-19T21:00:16.780Z,8.80
2023-04-19T21:02:45.118Z,8.80
2023-04-19T21:05:12.814Z,8.70
2023-04-19T21:07:40.294Z,8.70
2023-04-19T21:10:08.466Z,8.60
2023-04-19T21:12:36.020Z,8.60
2023-04-19T21:15:04.884Z,8.60
2023-04-19T21:17:32.433Z,8.60
2023-04-19T21:20:02.517Z,8.50
2023-04-19T21:22:30.270Z,8.50
2023-04-19T21:24:57.827Z,8.40
2023-04-19T21:27:25.447Z,8.40
2023-04-19T21:29:53.139Z,8.30
2023-04-19T21:32:22.328Z,8.30
2023-04-19T21:34:50.145Z,8.30
2023-04-19T21:37:19.754Z,8.20
2023-04-19T21:39:49.340Z,8.10
2023-04-19T21:42:17.803Z,8.00
2023-04-19T21:44:45.937Z,8.00
2023-04-19T21:47:13.521Z,7.90
2023-04-19T21:49:41.527Z,7.90
2023-04-19T21:52:09.079Z,7.90
2023-04-19T21:54:36.642Z,7.90
2023-04-19T21:57:04.484Z,7.80
2023-04-19T21:59:35.394Z,7.80
2023-04-19T22:02:03.577Z,7.70
2023-04-19T22:04:31.743Z,7.60
2023-04-19T22:07:03.056Z,7.60
2023-04-19T22:09:31.230Z,7.50
2023-04-19T22:12:00.250Z,7.40
2023-04-19T22:14:27.924Z,7.40
2023-04-19T22:16:56.672Z,7.40
2023-04-19T22:19:24.527Z,7.30
2023-04-19T22:21:53.545Z,7.20
2023-04-19T22:24:22.271Z,7.20
2023-04-19T22:26:51.185Z,7.10
2023-04-19T22:29:19.964Z,7.20
2023-04-19T22:31:47.610Z,7.20
2023-04-19T22:34:15.874Z,7.10
2023-04-19T22:36:43.417Z,7.20
2023-04-19T22:39:11.181Z,7.20
2023-04-19T22:41:38.746Z,7.20
2023-04-19T22:44:06.265Z,7.30
2023-04-19T22:46:33.952Z,7.30
2023-04-19T22:49:02.047Z,7.40
2023-04-19T22:51:30.373Z,7.30
2023-04-19T22:53:58.416Z,7.30
2023-04-19T22:56:26.290Z,7.30
2023-04-19T22:58:54.199Z,7.30
2023-04-19T23:01:21.939Z,7.20
2023-04-19T23:03:49.508Z,7.20
2023-04-19T23:06:17.924Z,7.20
2023-04-19T23:08:45.430Z,7.20
2023-04-19T23:11:13.756Z,7.10
2023-04-19T23:13:41.413Z,7.00
2023-04-19T23:16:12.044Z,7.00
2023-04-19T23:18:40.326Z,7.00
2023-04-19T23:21:07.949Z,7.00
2023-04-19T23:23:35.629Z,7.00
2023-04-19T23:26:03.342Z,6.90
2023-04-19T23:28:31.047Z,6.90
2023-04-19T23:30:58.740Z,6.80
2023-04-19T23:33:26.399Z,6.80
2023-04-19T23:35:53.921Z,6.80
2023-04-19T23:38:21.489Z,6.80
2023-04-19T23:40:49.051Z,6.70
2023-04-19T23:43:16.719Z,6.70
2023-04-19T23:45:44.525Z,6.70
2023-04-19T23:48:12.180Z,6.60
2023-04-19T23:50:39.694Z,6.60
2023-04-19T23:53:07.245Z,6.50
2023-04-19T23:55:34.853Z,6.50
2023-04-19T23:58:02.406Z,6.50
